Terminal Aerodrome Forecast
Issued by NWS Wilmington, OH

Home | Current Version | Previous Version | Text Only | Print | Product List | Glossary On
Versions: 1 2 3 4 5 6 7 8 9 10 11 12 13 14 15 16 17
954
FTUS41 KILN 010525
TAFCMH
TAF
KCMH 010525Z 0106/0206 07003KT P6SM SCT200
     FM011400 15006KT P6SM SCT150
     FM012000 17007KT P6SM SCT060 BKN120
     FM020000 19005KT P6SM VCTS BKN060CB
     FM020300 19003KT P6SM SCT060 BKN250=

USA.gov is the U.S. government's official web portal to all federal, state and local government web resources and services.